sensor_id;sensor_type;location;lat;lon;timestamp;pressure;altitude;pressure_sealevel;temperature;humidity
3142;BME280;1581;51.568;6.998;2023-06-22T00:00:12;101161.66;;;24.24;87.14
3142;BME280;1581;51.568;6.998;2023-06-22T00:02:41;101145.06;;;24.25;86.63
3142;BME280;1581;51.568;6.998;2023-06-22T00:05:10;101140.13;;;24.27;87.68
3142;BME280;1581;51.568;6.998;2023-06-22T00:07:40;101146.38;;;24.18;87.62
3142;BME280;1581;51.568;6.998;2023-06-22T00:10:10;101159.44;;;24.16;88.18
3142;BME280;1581;51.568;6.998;2023-06-22T00:12:38;101152.59;;;24.08;87.53
3142;BME280;1581;51.568;6.998;2023-06-22T00:15:07;101155.59;;;24.12;88.52
3142;BME280;1581;51.568;6.998;2023-06-22T00:17:35;101157.81;;;24.10;88.43
3142;BME280;1581;51.568;6.998;2023-06-22T00:20:04;101153.97;;;24.06;89.16
3142;BME280;1581;51.568;6.998;2023-06-22T00:22:35;101153.97;;;24.06;89.52
3142;BME280;1581;51.568;6.998;2023-06-22T00:25:08;101155.88;;;24.10;89.56
3142;BME280;1581;51.568;6.998;2023-06-22T00:27:36;101149.28;;;23.96;90.13
3142;BME280;1581;51.568;6.998;2023-06-22T00:30:06;101155.84;;;24.00;90.12
3142;BME280;1581;51.568;6.998;2023-06-22T00:32:34;101147.44;;;24.07;89.92
3142;BME280;1581;51.568;6.998;2023-06-22T00:35:03;101153.69;;;24.07;90.09
3142;BME280;1581;51.568;6.998;2023-06-22T00:37:31;101153.72;;;24.12;90.92
3142;BME280;1581;51.568;6.998;2023-06-22T00:40:00;101154.53;;;24.13;90.47
3142;BME280;1581;51.568;6.998;2023-06-22T00:42:31;101149.34;;;24.16;90.81
3142;BME280;1581;51.568;6.998;2023-06-22T00:44:59;101147.72;;;24.10;91.08
3142;BME280;1581;51.568;6.998;2023-06-22T00:47:28;101153.69;;;24.07;91.53
3142;BME280;1581;51.568;6.998;2023-06-22T00:49:56;101148.78;;;24.09;92.32
3142;BME280;1581;51.568;6.998;2023-06-22T00:52:25;101147.72;;;24.05;92.06
3142;BME280;1581;51.568;6.998;2023-06-22T00:54:57;101144.72;;;24.07;91.87
3142;BME280;1581;51.568;6.998;2023-06-22T00:57:28;101146.06;;;24.09;92.33
3142;BME280;1581;51.568;6.998;2023-06-22T00:59:58;101146.06;;;24.04;92.52
3142;BME280;1581;51.568;6.998;2023-06-22T01:02:26;101143.84;;;23.96;93.08
3142;BME280;1581;51.568;6.998;2023-06-22T01:04:56;101141.72;;;24.03;92.84
3142;BME280;1581;51.568;6.998;2023-06-22T01:07:31;101132.63;;;23.83;93.65
3142;BME280;1581;51.568;6.998;2023-06-22T01:10:10;101133.75;;;23.92;92.78
3142;BME280;1581;51.568;6.998;2023-06-22T01:12:48;101135.09;;;23.84;92.83
3142;BME280;1581;51.568;6.998;2023-06-22T01:15:25;101130.69;;;23.78;93.26
3142;BME280;1581;51.568;6.998;2023-06-22T01:17:58;101132.53;;;23.73;94.09
3142;BME280;1581;51.568;6.998;2023-06-22T01:20:28;101134.78;;;23.76;94.28
3142;BME280;1581;51.568;6.998;2023-06-22T01:23:09;101129.81;;;23.68;94.35
3142;BME280;1581;51.568;6.998;2023-06-22T01:25:48;101116.91;;;23.48;96.01
3142;BME280;1581;51.568;6.998;2023-06-22T01:28:49;101124.28;;;23.53;95.63
3142;BME280;1581;51.568;6.998;2023-06-22T01:31:20;101118.81;;;23.48;96.03
3142;BME280;1581;51.568;6.998;2023-06-22T01:33:53;101119.59;;;23.44;96.38
3142;BME280;1581;51.568;6.998;2023-06-22T01:36:22;101124.50;;;23.42;96.68
3142;BME280;1581;51.568;6.998;2023-06-22T01:38:53;101134.00;;;23.39;96.68
3142;BME280;1581;51.568;6.998;2023-06-22T01:41:21;101119.50;;;23.29;97.00
3142;BME280;1581;51.568;6.998;2023-06-22T01:43:52;101116.50;;;23.25;97.36
3142;BME280;1581;51.568;6.998;2023-06-22T01:46:21;101116.19;;;23.22;97.31
3142;BME280;1581;51.568;6.998;2023-06-22T01:48:50;101106.91;;;23.18;97.86
3142;BME280;1581;51.568;6.998;2023-06-22T01:51:19;101113.41;;;23.12;98.67
3142;BME280;1581;51.568;6.998;2023-06-22T01:53:47;101119.66;;;23.12;98.26
3142;BME280;1581;51.568;6.998;2023-06-22T01:56:17;101111.38;;;23.02;98.91
3142;BME280;1581;51.568;6.998;2023-06-22T01:58:57;101113.88;;;23.04;99.04
3142;BME280;1581;51.568;6.998;2023-06-22T02:01:35;101118.16;;;22.95;99.90
3142;BME280;1581;51.568;6.998;2023-06-22T02:04:16;101116.72;;;22.87;99.99
3142;BME280;1581;51.568;6.998;2023-06-22T02:06:56;101117.50;;;22.83;100.00
3142;BME280;1581;51.568;6.998;2023-06-22T02:09:29;101119.38;;;22.82;100.00
3142;BME280;1581;51.568;6.998;2023-06-22T02:12:01;101118.28;;;22.78;100.00
3142;BME280;1581;51.568;6.998;2023-06-22T02:14:33;101117.41;;;22.73;100.00
3142;BME280;1581;51.568;6.998;2023-06-22T02:17:02;101111.41;;;22.71;100.00
3142;BME280;1581;51.568;6.998;2023-06-22T02:19:37;101107.56;;;22.67;100.00
3142;BME280;1581;51.568;6.998;2023-06-22T02:22:06;101123.34;;;22.65;100.00
3142;BME280;1581;51.568;6.998;2023-06-22T02:24:35;101117.31;;;22.63;100.00
3142;BME280;1581;51.568;6.998;2023-06-22T02:27:04;101121.97;;;22.67;100.00
3142;BME280;1581;51.568;6.998;2023-06-22T02:29:37;101117.16;;;22.74;100.00
3142;BME280;1581;51.568;6.998;2023-06-22T02:32:06;101113.06;;;22.72;100.00
3142;BME280;1581;51.568;6.998;2023-06-22T02:34:35;101114.44;;;22.74;100.00
3142;BME280;1581;51.568;6.998;2023-06-22T02:37:04;101106.75;;;22.66;100.00
3142;BME280;1581;51.568;6.998;2023-06-22T02:39:32;101107.22;;;22.58;100.00
3142;BME280;1581;51.568;6.998;2023-06-22T02:42:01;101108.09;;;22.64;100.00
3142;BME280;1581;51.568;6.998;2023-06-22T02:44:30;101110.84;;;22.69;100.00
3142;BME280;1581;51.568;6.998;2023-06-22T02:47:00;101095.81;;;22.61;100.00
3142;BME280;1581;51.568;6.998;2023-06-22T02:49:28;101090.41;;;22.61;100.00
3142;BME280;1581;51.568;6.998;2023-06-22T02:51:58;101089.28;;;22.58;100.00
3142;BME280;1581;51.568;6.998;2023-06-22T02:54:26;101098.00;;;22.59;100.00
3142;BME280;1581;51.568;6.998;2023-06-22T02:56:54;101094.03;;;22.41;100.00
3142;BME280;1581;51.568;6.998;2023-06-22T02:59:22;101089.09;;;22.38;100.00
3142;BME280;1581;51.568;6.998;2023-06-22T03:01:57;101086.97;;;22.40;100.00
3142;BME280;1581;51.568;6.998;2023-06-22T03:04:26;101093.50;;;22.44;100.00
3142;BME280;1581;51.568;6.998;2023-06-22T03:06:57;101087.63;;;22.30;100.00
3142;BME280;1581;51.568;6.998;2023-06-22T03:09:28;101086.63;;;22.36;100.00
3142;BME280;1581;51.568;6.998;2023-06-22T03:11:56;101082.63;;;22.44;100.00
3142;BME280;1581;51.568;6.998;2023-06-22T03:14:24;101083.47;;;22.44;100.00
3142;BME280;1581;51.568;6.998;2023-06-22T03:16:53;101072.84;;;22.43;100.00
3142;BME280;1581;51.568;6.998;2023-06-22T03:19:21;101075.22;;;22.34;100.00
3142;BME280;1581;51.568;6.998;2023-06-22T03:21:51;101072.81;;;22.38;100.00
3142;BME280;1581;51.568;6.998;2023-06-22T03:24:19;101071.47;;;22.40;100.00
3142;BME280;1581;51.568;6.998;2023-06-22T03:26:49;101074.38;;;22.34;100.00
3142;BME280;1581;51.568;6.998;2023-06-22T03:29:19;101082.41;;;22.24;100.00
3142;BME280;1581;51.568;6.998;2023-06-22T03:31:47;101077.16;;;22.17;100.00
3142;BME280;1581;51.568;6.998;2023-06-22T03:34:16;101073.97;;;22.20;100.00
3142;BME280;1581;51.568;6.998;2023-06-22T03:36:44;101070.75;;;22.23;100.00
3142;BME280;1581;51.568;6.998;2023-06-22T03:39:17;101073.91;;;22.15;100.00
3142;BME280;1581;51.568;6.998;2023-06-22T03:41:45;101073.28;;;22.08;100.00
3142;BME280;1581;51.568;6.998;2023-06-22T03:44:13;101070.63;;;22.13;100.00
3142;BME280;1581;51.568;6.998;2023-06-22T03:46:42;101064.47;;;22.23;100.00
3142;BME280;1581;51.568;6.998;2023-06-22T03:49:10;101063.59;;;22.17;100.00
3142;BME280;1581;51.568;6.998;2023-06-22T03:51:39;101063.00;;;22.10;100.00
3142;BME280;1581;51.568;6.998;2023-06-22T03:54:10;101052.75;;;22.17;100.00
3142;BME280;1581;51.568;6.998;2023-06-22T03:56:44;101046.88;;;22.25;100.00
3142;BME280;1581;51.568;6.998;2023-06-22T03:59:14;101036.25;;;22.24;100.00
3142;BME280;1581;51.568;6.998;2023-06-22T04:01:46;101047.38;;;22.22;100.00
3142;BME280;1581;51.568;6.998;2023-06-22T04:04:14;101041.44;;;22.25;100.00
3142;BME280;1581;51.568;6.998;2023-06-22T04:06:42;101040.03;;;22.23;100.00
3142;BME280;1581;51.568;6.998;2023-06-22T04:09:11;101033.59;;;22.29;100.00
3142;BME280;1581;51.568;6.998;2023-06-22T04:11:41;101035.69;;;22.22;100.00
3142;BME280;1581;51.568;6.998;2023-06-22T04:14:11;101038.16;;;22.23;100.00
3142;BME280;1581;51.568;6.998;2023-06-22T04:16:39;101034.09;;;22.26;100.00
3142;BME280;1581;51.568;6.998;2023-06-22T04:19:07;101030.44;;;22.37;100.00
3142;BME280;1581;51.568;6.998;2023-06-22T04:21:42;101032.63;;;22.40;100.00
3142;BME280;1581;51.568;6.998;2023-06-22T04:24:11;101040.25;;;22.43;100.00
3142;BME280;1581;51.568;6.998;2023-06-22T04:26:41;101043.72;;;22.33;100.00
3142;BME280;1581;51.568;6.998;2023-06-22T04:29:12;101049.75;;;22.40;100.00
3142;BME280;1581;51.568;6.998;2023-06-22T04:31:40;101050.00;;;22.39;100.00
3142;BME280;1581;51.568;6.998;2023-06-22T04:34:09;101047.59;;;22.42;100.00
3142;BME280;1581;51.568;6.998;2023-06-22T04:36:38;101047.38;;;22.49;100.00
3142;BME280;1581;51.568;6.998;2023-06-22T04:39:08;101049.84;;;22.50;100.00
3142;BME280;1581;51.568;6.998;2023-06-22T04:41:40;101053.47;;;22.60;100.00
3142;BME280;1581;51.568;6.998;2023-06-22T04:44:11;101050.00;;;22.70;100.00
3142;BME280;1581;51.568;6.998;2023-06-22T04:46:42;101048.06;;;22.65;100.00
3142;BME280;1581;51.568;6.998;2023-06-22T04:49:11;101047.06;;;22.76;100.00
3142;BME280;1581;51.568;6.998;2023-06-22T04:51:41;101040.56;;;22.77;100.00
3142;BME280;1581;51.568;6.998;2023-06-22T04:54:10;101033.25;;;22.83;100.00
3142;BME280;1581;51.568;6.998;2023-06-22T04:56:40;101040.56;;;22.77;100.00
3142;BME280;1581;51.568;6.998;2023-06-22T04:59:09;101041.34;;;22.73;100.00
3142;BME280;1581;51.568;6.998;2023-06-22T05:01:41;101048.66;;;22.72;100.00
3142;BME280;1581;51.568;6.998;2023-06-22T05:04:10;101046.31;;;22.86;100.00
3142;BME280;1581;51.568;6.998;2023-06-22T05:06:39;101051.50;;;22.87;100.00
3142;BME280;1581;51.568;6.998;2023-06-22T05:09:08;101051.44;;;22.82;100.00
3142;BME280;1581;51.568;6.998;2023-06-22T05:11:40;101054.22;;;22.87;100.00
3142;BME280;1581;51.568;6.998;2023-06-22T05:14:08;101052.28;;;22.83;100.00
3142;BME280;1581;51.568;6.998;2023-06-22T05:16:37;101050.66;;;22.87;100.00
3142;BME280;1581;51.568;6.998;2023-06-22T05:19:05;101052.00;;;22.84;100.00
3142;BME280;1581;51.568;6.998;2023-06-22T05:21:36;101050.91;;;22.80;100.00
3142;BME280;1581;51.568;6.998;2023-06-22T05:24:05;101050.19;;;22.95;100.00
3142;BME280;1581;51.568;6.998;2023-06-22T05:26:34;101053.16;;;22.93;100.00
3142;BME280;1581;51.568;6.998;2023-06-22T05:29:04;101042.81;;;22.90;100.00
3142;BME280;1581;51.568;6.998;2023-06-22T05:31:33;101045.16;;;22.77;100.00
3142;BME280;1581;51.568;6.998;2023-06-22T05:34:01;101048.50;;;22.89;100.00
3142;BME280;1581;51.568;6.998;2023-06-22T05:36:30;101049.63;;;22.93;100.00
3142;BME280;1581;51.568;6.998;2023-06-22T05:38:58;101049.94;;;22.96;100.00
3142;BME280;1581;51.568;6.998;2023-06-22T05:41:26;101056.16;;;22.97;100.00
3142;BME280;1581;51.568;6.998;2023-06-22T05:43:56;101071.41;;;22.98;100.00
3142;BME280;1581;51.568;6.998;2023-06-22T05:50:52;101077.31;;;22.90;100.00
3142;BME280;1581;51.568;6.998;2023-06-22T05:53:46;101076.03;;;22.97;100.00
3142;BME280;1581;51.568;6.998;2023-06-22T05:56:21;101077.69;;;23.03;100.00
3142;BME280;1581;51.568;6.998;2023-06-22T05:58:57;101079.25;;;22.94;100.00
3142;BME280;1581;51.568;6.998;2023-06-22T06:01:40;101080.38;;;22.98;100.00
3142;BME280;1581;51.568;6.998;2023-06-22T06:04:23;101067.88;;;22.97;100.00
3142;BME280;1581;51.568;6.998;2023-06-22T06:07:33;101090.69;;;22.96;100.00
3142;BME280;1581;51.568;6.998;2023-06-22T06:10:24;101097.78;;;23.02;100.00
3142;BME280;1581;51.568;6.998;2023-06-22T06:12:53;101090.25;;;23.04;100.00
3142;BME280;1581;51.568;6.998;2023-06-22T06:15:33;101086.94;;;23.02;100.00
3142;BME280;1581;51.568;6.998;2023-06-22T06:18:21;101087.72;;;22.98;100.00
3142;BME280;1581;51.568;6.998;2023-06-22T06:20:51;101083.63;;;22.95;100.00
3142;BME280;1581;51.568;6.998;2023-06-22T06:23:22;101092.28;;;22.92;100.00
3142;BME280;1581;51.568;6.998;2023-06-22T06:25:52;101094.75;;;22.94;100.00
3142;BME280;1581;51.568;6.998;2023-06-22T06:28:21;101087.91;;;22.86;100.00
3142;BME280;1581;51.568;6.998;2023-06-22T06:30:55;101092.25;;;22.87;100.00
3142;BME280;1581;51.568;6.998;2023-06-22T06:33:41;101084.06;;;22.82;100.00
3142;BME280;1581;51.568;6.998;2023-06-22T06:36:18;101080.53;;;22.82;100.00
3142;BME280;1581;51.568;6.998;2023-06-22T06:38:56;101079.75;;;22.86;100.00
3142;BME280;1581;51.568;6.998;2023-06-22T06:41:51;101072.66;;;22.80;100.00
3142;BME280;1581;51.568;6.998;2023-06-22T06:44:51;101071.00;;;22.79;100.00
3142;BME280;1581;51.568;6.998;2023-06-22T06:47:29;101068.81;;;22.76;100.00
3142;BME280;1581;51.568;6.998;2023-06-22T06:49:58;101068.28;;;22.79;100.00
3142;BME280;1581;51.568;6.998;2023-06-22T06:53:04;101070.22;;;22.84;100.00
3142;BME280;1581;51.568;6.998;2023-06-22T06:56:37;101060.34;;;22.73;100.00
3142;BME280;1581;51.568;6.998;2023-06-22T07:00:11;101063.22;;;22.61;100.00
3142;BME280;1581;51.568;6.998;2023-06-22T07:04:02;101050.84;;;22.70;100.00
3142;BME280;1581;51.568;6.998;2023-06-22T07:07:11;101047.63;;;22.78;100.00
3142;BME280;1581;51.568;6.998;2023-06-22T07:09:43;101046.63;;;22.89;100.00
3142;BME280;1581;51.568;6.998;2023-06-22T07:12:54;101045.00;;;22.93;100.00
3142;BME280;1581;51.568;6.998;2023-06-22T07:15:31;101052.38;;;22.98;100.00
3142;BME280;1581;51.568;6.998;2023-06-22T07:18:01;101044.78;;;23.00;100.00
3142;BME280;1581;51.568;6.998;2023-06-22T07:21:13;101038.06;;;23.07;100.00
3142;BME280;1581;51.568;6.998;2023-06-22T07:23:53;101031.84;;;23.17;100.00
3142;BME280;1581;51.568;6.998;2023-06-22T07:26:24;101036.19;;;23.13;100.00
3142;BME280;1581;51.568;6.998;2023-06-22T07:28:55;101036.22;;;23.18;100.00
3142;BME280;1581;51.568;6.998;2023-06-22T07:31:27;101037.78;;;23.09;100.00
3142;BME280;1581;51.568;6.998;2023-06-22T07:33:57;101039.31;;;22.95;100.00
3142;BME280;1581;51.568;6.998;2023-06-22T07:36:25;101030.44;;;23.04;100.00
3142;BME280;1581;51.568;6.998;2023-06-22T07:38:57;101035.69;;;23.16;100.00
3142;BME280;1581;51.568;6.998;2023-06-22T07:41:26;101029.63;;;23.09;100.00
3142;BME280;1581;51.568;6.998;2023-06-22T07:43:56;101033.50;;;23.18;100.00
3142;BME280;1581;51.568;6.998;2023-06-22T07:46:30;101025.09;;;23.19;100.00
3142;BME280;1581;51.568;6.998;2023-06-22T07:48:58;101028.91;;;23.23;100.00
3142;BME280;1581;51.568;6.998;2023-06-22T07:51:28;101023.78;;;23.37;100.00
3142;BME280;1581;51.568;6.998;2023-06-22T07:53:58;101020.84;;;23.38;100.00
3142;BME280;1581;51.568;6.998;2023-06-22T07:56:30;101028.44;;;23.41;100.00
3142;BME280;1581;51.568;6.998;2023-06-22T07:59:01;101033.31;;;23.29;100.00
3142;BME280;1581;51.568;6.998;2023-06-22T08:01:30;101026.69;;;23.10;100.00
3142;BME280;1581;51.568;6.998;2023-06-22T08:03:58;101027.25;;;23.17;100.00
3142;BME280;1581;51.568;6.998;2023-06-22T08:06:28;101027.06;;;23.39;100.00
3142;BME280;1581;51.568;6.998;2023-06-22T08:09:00;101017.59;;;23.51;100.00
3142;BME280;1581;51.568;6.998;2023-06-22T08:11:30;101012.75;;;23.63;100.00
3142;BME280;1581;51.568;6.998;2023-06-22T08:14:00;101002.69;;;23.68;100.00
3142;BME280;1581;51.568;6.998;2023-06-22T08:16:28;101000.59;;;23.80;100.00
3142;BME280;1581;51.568;6.998;2023-06-22T08:18:56;101006.59;;;23.87;100.00
3142;BME280;1581;51.568;6.998;2023-06-22T08:21:25;101012.31;;;23.91;100.00
3142;BME280;1581;51.568;6.998;2023-06-22T08:23:53;101006.09;;;24.00;100.00
3142;BME280;1581;51.568;6.998;2023-06-22T08:26:22;100994.13;;;24.11;100.00
3142;BME280;1581;51.568;6.998;2023-06-22T08:28:50;100982.72;;;24.24;100.00
3142;BME280;1581;51.568;6.998;2023-06-22T08:31:22;100979.16;;;24.33;100.00
3142;BME280;1581;51.568;6.998;2023-06-22T08:33:50;100955.75;;;24.47;100.00
3142;BME280;1581;51.568;6.998;2023-06-22T08:36:20;100952.16;;;24.67;100.00
3142;BME280;1581;51.568;6.998;2023-06-22T08:38:49;100943.13;;;24.81;100.00
3142;BME280;1581;51.568;6.998;2023-06-22T08:41:20;100932.19;;;24.96;100.00
3142;BME280;1581;51.568;6.998;2023-06-22T08:43:49;100933.00;;;25.02;100.00
3142;BME280;1581;51.568;6.998;2023-06-22T08:46:28;100932.69;;;25.18;100.00
3142;BME280;1581;51.568;6.998;2023-06-22T08:49:08;100933.16;;;25.35;100.00
3142;BME280;1581;51.568;6.998;2023-06-22T08:51:40;100930.13;;;25.41;100.00
3142;BME280;1581;51.568;6.998;2023-06-22T08:54:11;100936.34;;;25.52;100.00
3142;BME280;1581;51.568;6.998;2023-06-22T08:56:40;100939.91;;;25.47;100.00
3142;BME280;1581;51.568;6.998;2023-06-22T08:59:10;100935.81;;;25.50;100.00
3142;BME280;1581;51.568;6.998;2023-06-22T09:01:40;100938.31;;;25.41;100.00
3142;BME280;1581;51.568;6.998;2023-06-22T09:04:12;100937.75;;;25.44;100.00
3142;BME280;1581;51.568;6.998;2023-06-22T09:06:40;100945.38;;;25.47;100.00
3142;BME280;1581;51.568;6.998;2023-06-22T09:09:13;100932.56;;;25.43;100.00
3142;BME280;1581;51.568;6.998;2023-06-22T09:11:41;100935.78;;;25.60;100.00
3142;BME280;1581;51.568;6.998;2023-06-22T09:14:10;100922.06;;;25.70;100.00
3142;BME280;1581;51.568;6.998;2023-06-22T09:16:40;100923.63;;;25.81;100.00
3142;BME280;1581;51.568;6.998;2023-06-22T09:19:10;100922.50;;;25.87;100.00
3142;BME280;1581;51.568;6.998;2023-06-22T09:21:39;100922.22;;;25.88;100.00
3142;BME280;1581;51.568;6.998;2023-06-22T09:24:09;100927.34;;;25.95;100.00
3142;BME280;1581;51.568;6.998;2023-06-22T09:26:43;100924.63;;;25.95;100.00
3142;BME280;1581;51.568;6.998;2023-06-22T09:29:19;100926.56;;;25.94;100.00
3142;BME280;1581;51.568;6.998;2023-06-22T09:31:49;100925.16;;;25.97;100.00
3142;BME280;1581;51.568;6.998;2023-06-22T09:34:28;100921.09;;;25.94;100.00
3142;BME280;1581;51.568;6.998;2023-06-22T09:37:06;100923.31;;;25.87;100.00
3142;BME280;1581;51.568;6.998;2023-06-22T09:39:37;100918.16;;;25.81;100.00
3142;BME280;1581;51.568;6.998;2023-06-22T09:42:06;100925.25;;;25.82;100.00
3142;BME280;1581;51.568;6.998;2023-06-22T09:44:34;100917.13;;;25.77;100.00
3142;BME280;1581;51.568;6.998;2023-06-22T09:47:05;100912.47;;;25.77;100.00
3142;BME280;1581;51.568;6.998;2023-06-22T09:49:34;100914.97;;;25.64;100.00
3142;BME280;1581;51.568;6.998;2023-06-22T09:52:02;100906.22;;;25.67;100.00
3142;BME280;1581;51.568;6.998;2023-06-22T09:54:30;100911.44;;;25.63;100.00
3142;BME280;1581;51.568;6.998;2023-06-22T09:56:58;100912.00;;;25.60;100.00
3142;BME280;1581;51.568;6.998;2023-06-22T09:59:26;100913.34;;;25.63;100.00
3142;BME280;1581;51.568;6.998;2023-06-22T10:01:54;100905.13;;;25.68;100.00
3142;BME280;1581;51.568;6.998;2023-06-22T10:04:24;100899.63;;;25.78;100.00
3142;BME280;1581;51.568;6.998;2023-06-22T10:06:53;100903.41;;;25.82;100.00
3142;BME280;1581;51.568;6.998;2023-06-22T10:09:21;100902.22;;;25.98;100.00
3142;BME280;1581;51.568;6.998;2023-06-22T10:11:49;100896.06;;;26.11;100.00
3142;BME280;1581;51.568;6.998;2023-06-22T10:14:18;100899.13;;;26.37;100.00
3142;BME280;1581;51.568;6.998;2023-06-22T10:16:47;100900.75;;;26.67;100.00
3142;BME280;1581;51.568;6.998;2023-06-22T10:19:15;100893.72;;;27.07;100.00
3142;BME280;1581;51.568;6.998;2023-06-22T10:21:45;100890.94;;;27.31;100.00
3142;BME280;1581;51.568;6.998;2023-06-22T10:24:13;100892.91;;;27.49;99.32
3142;BME280;1581;51.568;6.998;2023-06-22T10:26:41;100886.69;;;27.80;98.45
3142;BME280;1581;51.568;6.998;2023-06-22T10:29:09;100879.44;;;27.89;96.82
3142;BME280;1581;51.568;6.998;2023-06-22T10:31:37;100871.63;;;27.96;94.25
3142;BME280;1581;51.568;6.998;2023-06-22T10:34:05;100867.53;;;28.12;92.75
3142;BME280;1581;51.568;6.998;2023-06-22T10:36:33;100870.66;;;28.24;92.26
3142;BME280;1581;51.568;6.998;2023-06-22T10:39:03;100869.97;;;28.45;90.50
3142;BME280;1581;51.568;6.998;2023-06-22T10:41:33;100865.53;;;28.76;88.77
3142;BME280;1581;51.568;6.998;2023-06-22T10:44:01;100864.94;;;28.92;88.54
3142;BME280;1581;51.568;6.998;2023-06-22T10:46:29;100865.03;;;28.87;88.65
3142;BME280;1581;51.568;6.998;2023-06-22T10:48:58;100869.00;;;28.82;86.30
3142;BME280;1581;51.568;6.998;2023-06-22T10:51:27;100870.81;;;28.73;85.81
3142;BME280;1581;51.568;6.998;2023-06-22T10:53:56;100868.75;;;28.51;86.39
3142;BME280;1581;51.568;6.998;2023-06-22T10:56:28;100867.59;;;28.25;87.77
3142;BME280;1581;51.568;6.998;2023-06-22T10:58:56;100869.56;;;28.06;87.99
3142;BME280;1581;51.568;6.998;2023-06-22T11:01:24;100867.91;;;28.05;87.22
3142;BME280;1581;51.568;6.998;2023-06-22T11:03:53;100869.31;;;27.90;87.87
3142;BME280;1581;51.568;6.998;2023-06-22T11:06:21;100888.63;;;27.80;87.80
3142;BME280;1581;51.568;6.998;2023-06-22T11:08:50;100883.31;;;27.70;87.29
3142;BME280;1581;51.568;6.998;2023-06-22T11:11:19;100899.81;;;27.65;88.56
3142;BME280;1581;51.568;6.998;2023-06-22T11:13:48;100900.28;;;27.48;90.51
3142;BME280;1581;51.568;6.998;2023-06-22T11:16:17;100909.91;;;27.46;90.33
3142;BME280;1581;51.568;6.998;2023-06-22T11:18:45;100901.44;;;27.24;91.02
3142;BME280;1581;51.568;6.998;2023-06-22T11:21:13;100909.88;;;27.27;90.59
3142;BME280;1581;51.568;6.998;2023-06-22T11:23:42;100910.53;;;27.19;92.07
3142;BME280;1581;51.568;6.998;2023-06-22T11:26:11;100907.72;;;27.06;93.27
3142;BME280;1581;51.568;6.998;2023-06-22T11:28:39;100897.56;;;27.06;95.54
3142;BME280;1581;51.568;6.998;2023-06-22T11:31:09;100893.56;;;26.99;97.60
3142;BME280;1581;51.568;6.998;2023-06-22T11:33:40;100895.72;;;27.02;99.54
3142;BME280;1581;51.568;6.998;2023-06-22T11:36:08;100894.03;;;26.83;100.00
3142;BME280;1581;51.568;6.998;2023-06-22T11:38:40;100900.63;;;26.77;100.00
3142;BME280;1581;51.568;6.998;2023-06-22T11:41:12;100887.16;;;26.62;100.00
3142;BME280;1581;51.568;6.998;2023-06-22T11:43:41;100893.47;;;26.57;100.00
3142;BME280;1581;51.568;6.998;2023-06-22T11:46:13;100888.19;;;26.37;100.00
3142;BME280;1581;51.568;6.998;2023-06-22T11:48:44;100892.88;;;26.32;100.00
3142;BME280;1581;51.568;6.998;2023-06-22T11:51:15;100892.50;;;26.15;100.00
3142;BME280;1581;51.568;6.998;2023-06-22T11:53:44;100892.59;;;26.05;100.00
3142;BME280;1581;51.568;6.998;2023-06-22T11:56:12;100896.50;;;25.94;100.00
3142;BME280;1581;51.568;6.998;2023-06-22T11:58:42;100890.78;;;25.91;100.00
3142;BME280;1581;51.568;6.998;2023-06-22T12:01:12;100893.59;;;25.76;100.00
3142;BME280;1581;51.568;6.998;2023-06-22T12:03:42;100892.34;;;25.63;100.00
3142;BME280;1581;51.568;6.998;2023-06-22T12:06:10;100881.25;;;25.50;100.00
3142;BME280;1581;51.568;6.998;2023-06-22T12:08:38;100864.94;;;25.35;100.00
3142;BME280;1581;51.568;6.998;2023-06-22T12:11:07;100839.06;;;25.27;100.00
3142;BME280;1581;51.568;6.998;2023-06-22T12:13:36;100836.94;;;25.25;100.00
3142;BME280;1581;51.568;6.998;2023-06-22T12:16:07;100820.88;;;25.18;100.00
3142;BME280;1581;51.568;6.998;2023-06-22T12:18:38;100805.06;;;25.10;100.00
3142;BME280;1581;51.568;6.998;2023-06-22T12:21:07;100790.63;;;25.15;100.00
3142;BME280;1581;51.568;6.998;2023-06-22T12:23:36;100766.56;;;25.17;100.00
3142;BME280;1581;51.568;6.998;2023-06-22T12:26:06;100745.31;;;25.09;100.00
3142;BME280;1581;51.568;6.998;2023-06-22T12:28:36;100759.78;;;25.09;100.00
3142;BME280;1581;51.568;6.998;2023-06-22T12:31:15;100765.81;;;25.06;100.00
3142;BME280;1581;51.568;6.998;2023-06-22T12:33:44;100765.03;;;25.01;100.00
3142;BME280;1581;51.568;6.998;2023-06-22T12:36:25;100767.50;;;24.92;100.00
3142;BME280;1581;51.568;6.998;2023-06-22T12:39:09;100751.16;;;24.92;100.00
3142;BME280;1581;51.568;6.998;2023-06-22T12:42:06;100739.69;;;24.95;100.00
3142;BME280;1581;51.568;6.998;2023-06-22T12:44:44;100746.97;;;25.10;100.00
3142;BME280;1581;51.568;6.998;2023-06-22T12:47:19;100732.41;;;25.29;100.00
3142;BME280;1581;51.568;6.998;2023-06-22T12:49:50;100737.94;;;25.52;100.00
3142;BME280;1581;51.568;6.998;2023-06-22T12:52:21;100732.41;;;25.57;100.00
3142;BME280;1581;51.568;6.998;2023-06-22T12:54:53;100734.91;;;25.54;100.00
3142;BME280;1581;51.568;6.998;2023-06-22T13:00:45;100736.34;;;25.75;100.00
3142;BME280;1581;51.568;6.998;2023-06-22T13:03:17;100732.00;;;25.79;100.00
3142;BME280;1581;51.568;6.998;2023-06-22T13:05:59;100720.47;;;25.82;100.00
3142;BME280;1581;51.568;6.998;2023-06-22T13:12:27;100712.53;;;25.52;100.00
3142;BME280;1581;51.568;6.998;2023-06-22T13:15:17;100699.19;;;25.50;100.00
3142;BME280;1581;51.568;6.998;2023-06-22T13:17:54;100705.81;;;25.44;100.00
3142;BME280;1581;51.568;6.998;2023-06-22T13:20:29;100701.78;;;25.37;100.00
3142;BME280;1581;51.568;6.998;2023-06-22T13:23:03;100698.66;;;25.20;100.00
3142;BME280;1581;51.568;6.998;2023-06-22T13:25:50;100690.41;;;25.25;100.00
3142;BME280;1581;51.568;6.998;2023-06-22T13:28:33;100690.16;;;25.22;100.00
3142;BME280;1581;51.568;6.998;2023-06-22T13:31:33;100695.94;;;25.15;100.00
3142;BME280;1581;51.568;6.998;2023-06-22T13:34:20;100695.44;;;25.08;100.00
3142;BME280;1581;51.568;6.998;2023-06-22T13:36:54;100701.44;;;25.05;100.00
3142;BME280;1581;51.568;6.998;2023-06-22T13:39:33;100697.94;;;25.00;100.00
3142;BME280;1581;51.568;6.998;2023-06-22T13:42:11;100698.69;;;25.10;100.00